Skip Navigation Links Skip Navigation Links

Current Weather

Phoenix Sky Harbor Intl, Phoenix, Ariz.

For information only: do not use for flight planning or navigation.
Latest weather
Observation time Sunday, May 26, 2019 7:51 AM MST
Local time Sunday, May 26, 2019 8:34 AM MST
Flight conditions Visual Meteorological Conditions
Winds
Wind direction variable
Wind speed 3 mph
Visibility 10 mi.
Sky condition
Ceiling unlimited
Cloud layer scattered clouds 9,500 ft.
Cloud layer scattered clouds 11,000 ft.
Temperature 73°F
Dewpoint 33°F
Altimeter 29.79 in.Hg
Pressure change last 3 hours-0.04 in.Hg
Pressure rising more quickly
Derived measurements
Relative humidity 23%
Density altitude 2292 ft.
Sea-level pressure 29.74 in.Hg
Remarks
Automated weather observing station with precipitation discriminator.
METAR KPHX 261451Z VRB03KT 10SM SCT095 SCT110 23/01 A2979 RMK AO2 SLP071 T02280006 53015

Settings

Location code

InnerDrive.Weather 4.0.6770.0 Release CLR 4.0.30319.42000
Copyright ©2018 Inner Drive Technology. All rights reserved. Portions Copyright ©1986-2018 David Braverman.

Find weather

Site navigation


Skip Navigation Links

Place info

Page info

PayPal - The safer, easier way to pay online!

Return home.

Copyright ©2019 Inner Drive Technology. Purveyors of fine, hand-crafted computer software. Page printed 2019-05-26T15:34:49 UTC.